La Grande, OR

9:41 PM PST on February 26, 2017 (GMT -0800)
La Grande-Union County

Weather History for KLGD - February, 2013

Change the Weather History Date:

Wednesday, February 27, 2013

  Actual Average Record
Temperature  
Mean Temperature 40 °F -  
Max Temperature 46 °F 42 °F 63 °F (1992)
Min Temperature 33 °F 26 °F 7 °F (1993)
Degree Days  
Heating Degree Days 26    
Moisture  
Dew Point 19 °F    
Average Humidity 44    
Maximum Humidity 52    
Minimum Humidity 37    
Precipitation  
Precipitation 0.00 in - - ()
Sea Level Pressure  
Sea Level Pressure 30.27 in    
Wind  
Wind Speed 18 mph (South)    
Max Wind Speed 28 mph    
Max Gust Speed 36 mph    
Visibility 10 miles    
Events      
Averages and records for this station are not official NWS values.
T = Trace of Precipitation, MM = Missing Value Source: NWS Daily Summary

Daily Weather History Graph

Daily Weather History Graph

Search for Another Location

Airport or City:

Trip Planner

Search our weather history database for the weather conditions in past years. The results will help you decide how hot, cold, wet, or windy it might be!

Date:

Astronomy

Feb. 27, 2013 Rise Set
Actual Time 6:33 AM PST 5:36 PM PST
Civil Twilight 6:03 AM PST 6:06 PM PST
Nautical Twilight 5:29 AM PST 6:40 PM PST
Astronomical Twilight 4:55 AM PST 7:15 PM PST
Moon 8:13 PM PST 7:02 AM PST
Length of Visible Light 12h 03m
Length of Day
11h 03m
Waning Gibbous, 96% of the Moon is Illuminated
Feb 27
Waning Gibbous
Mar 4
Last Quarter
Mar 11
New
Mar 19
First Quarter
Mar 27
Full

Hourly Weather History & Observations

Time (PST) Temp. Windchill Dew Point Humidity Pressure Visibility Wind Dir Wind Speed Gust Speed Precip Events Conditions
12:15 AM 35.6 °F 25.9 °F 17.6 °F 48% 30.25 in 10.0 mi South 16.1 mph - N/A   Clear
12:35 AM 35.6 °F 27.1 °F 17.6 °F 48% 30.25 in 10.0 mi South 12.7 mph 17.3 mph N/A   Mostly Cloudy
12:55 AM 35.6 °F 25.2 °F 17.6 °F 48% 30.25 in 10.0 mi South 18.4 mph 24.2 mph N/A   Mostly Cloudy
1:15 AM 35.6 °F 26.2 °F 17.6 °F 48% 30.25 in 10.0 mi South 15.0 mph 19.6 mph N/A   Mostly Cloudy
1:35 AM 35.6 °F 26.2 °F 17.6 °F 48% 30.25 in 10.0 mi South 15.0 mph 21.9 mph N/A   Overcast
1:55 AM 35.6 °F 25.9 °F 17.6 °F 48% 30.24 in 10.0 mi South 16.1 mph 26.5 mph N/A   Overcast
2:15 AM 35.6 °F 24.5 °F 17.6 °F 48% 30.24 in 10.0 mi SSW 20.7 mph 26.5 mph N/A   Overcast
2:35 AM 35.6 °F 24.2 °F 17.6 °F 48% 30.24 in 10.0 mi SSW 21.9 mph 27.6 mph N/A   Overcast
2:55 AM 35.6 °F 24.8 °F 17.6 °F 48% 30.25 in 10.0 mi South 19.6 mph 26.5 mph N/A   Overcast
3:15 AM 35.6 °F 24.8 °F 17.6 °F 48% 30.24 in 10.0 mi SSW 19.6 mph 28.8 mph N/A   Overcast
3:35 AM 35.6 °F 25.5 °F 15.8 °F 44% 30.25 in 10.0 mi South 17.3 mph 25.3 mph N/A   Mostly Cloudy
3:55 AM 33.8 °F 22.2 °F 17.6 °F 52% 30.25 in 10.0 mi South 20.7 mph - N/A   Partly Cloudy
4:15 AM 33.8 °F 24.8 °F 15.8 °F 48% 30.25 in 10.0 mi South 12.7 mph 20.7 mph N/A   Clear
4:35 AM 33.8 °F 24.3 °F 15.8 °F 48% 30.26 in 10.0 mi SSE 13.8 mph 20.7 mph N/A   Clear
4:55 AM 33.8 °F 24.3 °F 15.8 °F 48% 30.25 in 10.0 mi South 13.8 mph - N/A   Clear
5:35 AM 33.8 °F 24.3 °F 15.8 °F 48% 30.26 in 10.0 mi SSE 13.8 mph 20.7 mph N/A   Partly Cloudy
5:55 AM 33.8 °F 22.2 °F 15.8 °F 48% 30.26 in 10.0 mi South 20.7 mph 24.2 mph N/A   Clear
6:15 AM 33.8 °F 22.8 °F 15.8 °F 48% 30.26 in 10.0 mi South 18.4 mph 24.2 mph N/A   Clear
6:35 AM 33.8 °F 22.8 °F 15.8 °F 48% 30.27 in 10.0 mi South 18.4 mph 28.8 mph N/A   Clear
6:55 AM 33.8 °F 24.3 °F 15.8 °F 48% 30.27 in 10.0 mi South 13.8 mph 21.9 mph N/A   Clear
7:15 AM 33.8 °F 23.2 °F 15.8 °F 48% 30.28 in 10.0 mi South 17.3 mph 23.0 mph N/A   Clear
7:35 AM 33.8 °F 24.8 °F 15.8 °F 48% 30.28 in 10.0 mi SSE 12.7 mph 21.9 mph N/A   Clear
7:55 AM 35.6 °F 25.2 °F 17.6 °F 48% 30.29 in 10.0 mi South 18.4 mph 25.3 mph N/A   Scattered Clouds
8:15 AM 35.6 °F 24.8 °F 17.6 °F 48% 30.29 in 10.0 mi South 19.6 mph 25.3 mph N/A   Partly Cloudy
8:35 AM 37.4 °F 26.1 °F 17.6 °F 45% 30.30 in 10.0 mi South 24.2 mph 27.6 mph N/A   Clear
8:55 AM 37.4 °F 26.6 °F 17.6 °F 45% 30.31 in 10.0 mi SSW 21.9 mph 32.2 mph N/A   Clear
9:15 AM 37.4 °F 26.6 °F 17.6 °F 45% 30.31 in 10.0 mi South 21.9 mph 32.2 mph N/A   Clear
9:35 AM 37.4 °F 25.6 °F 17.6 °F 45% 30.31 in 10.0 mi SSW 26.5 mph 31.1 mph N/A   Clear
9:55 AM 39.2 °F 28.3 °F 17.6 °F 42% 30.31 in 10.0 mi SSW 25.3 mph 33.4 mph N/A   Scattered Clouds
10:15 AM 39.2 °F 28.5 °F 17.6 °F 42% 30.31 in 10.0 mi South 24.2 mph 31.1 mph N/A   Partly Cloudy
10:35 AM 39.2 °F 27.8 °F 17.6 °F 42% 30.31 in 10.0 mi South 27.6 mph 33.4 mph N/A   Clear
10:55 AM 39.2 °F 28.0 °F 19.4 °F 45% 30.31 in 10.0 mi South 26.5 mph 35.7 mph N/A   Clear
11:15 AM 41.0 °F 30.9 °F 19.4 °F 42% 30.31 in 10.0 mi South 24.2 mph 29.9 mph N/A   Scattered Clouds
11:35 AM 41.0 °F 30.7 °F 19.4 °F 42% 30.31 in 10.0 mi South 25.3 mph 31.1 mph N/A   Scattered Clouds
11:55 AM 42.8 °F 32.7 °F 21.2 °F 42% 30.30 in 10.0 mi South 27.6 mph 32.2 mph N/A   Clear
12:15 PM 42.8 °F 33.5 °F 21.2 °F 42% 30.30 in 10.0 mi SSW 23.0 mph 33.4 mph N/A   Clear
12:35 PM 42.8 °F 34.8 °F 19.4 °F 39% 30.29 in 10.0 mi South 17.3 mph 27.6 mph N/A   Clear
12:55 PM 44.6 °F 36.6 °F 21.2 °F 39% 30.28 in 10.0 mi South 19.6 mph 28.8 mph N/A   Clear
1:15 PM 44.6 °F 35.9 °F 21.2 °F 39% 30.27 in 10.0 mi South 23.0 mph 28.8 mph N/A   Clear
1:35 PM 44.6 °F 36.9 °F 21.2 °F 39% 30.26 in 10.0 mi South 18.4 mph 27.6 mph N/A   Clear
1:55 PM 46.4 °F 39.5 °F 21.2 °F 37% 30.26 in 10.0 mi South 17.3 mph 26.5 mph N/A   Clear
2:15 PM 46.4 °F 39.5 °F 21.2 °F 37% 30.26 in 10.0 mi South 17.3 mph 21.9 mph N/A   Clear
2:35 PM 46.4 °F 39.8 °F 21.2 °F 37% 30.27 in 10.0 mi South 16.1 mph 23.0 mph N/A   Clear
2:55 PM 46.4 °F 39.5 °F 21.2 °F 37% 30.27 in 10.0 mi South 17.3 mph 26.5 mph N/A   Partly Cloudy
3:15 PM 44.6 °F 36.1 °F 21.2 °F 39% 30.26 in 10.0 mi South 21.9 mph 26.5 mph N/A   Clear
3:35 PM 44.6 °F 36.6 °F 21.2 °F 39% 30.26 in 10.0 mi South 19.6 mph - N/A   Partly Cloudy
3:55 PM 46.4 °F 39.2 °F 21.2 °F 37% 30.26 in 10.0 mi South 18.4 mph 24.2 mph N/A   Mostly Cloudy
4:15 PM 44.6 °F 36.9 °F 21.2 °F 39% 30.25 in 10.0 mi South 18.4 mph 26.5 mph N/A   Scattered Clouds
4:35 PM 44.6 °F 37.2 °F 21.2 °F 39% 30.25 in 10.0 mi South 17.3 mph 24.2 mph N/A   Mostly Cloudy
4:55 PM 42.8 °F 34.5 °F 21.2 °F 42% 30.25 in 10.0 mi South 18.4 mph 23.0 mph N/A   Overcast
5:15 PM 42.8 °F 34.8 °F 19.4 °F 39% 30.25 in 10.0 mi South 17.3 mph 24.2 mph N/A   Overcast
5:35 PM 41.0 °F 33.1 °F 21.2 °F 45% 30.25 in 10.0 mi South 15.0 mph 19.6 mph N/A   Overcast
5:55 PM 41.0 °F 33.5 °F 21.2 °F 45% 30.25 in 10.0 mi SSE 13.8 mph - N/A   Overcast
6:15 PM 41.0 °F 33.1 °F 21.2 °F 45% 30.26 in 10.0 mi SSE 15.0 mph 18.4 mph N/A   Overcast
6:35 PM 41.0 °F 32.8 °F 21.2 °F 45% 30.26 in 10.0 mi South 16.1 mph 20.7 mph N/A   Overcast
6:55 PM 41.0 °F 32.2 °F 19.4 °F 42% 30.26 in 10.0 mi South 18.4 mph 25.3 mph N/A   Overcast
7:15 PM 41.0 °F 32.8 °F 19.4 °F 42% 30.26 in 10.0 mi South 16.1 mph 27.6 mph N/A   Overcast
7:35 PM 41.0 °F 33.5 °F 19.4 °F 42% 30.27 in 10.0 mi South 13.8 mph - N/A   Overcast
7:55 PM 41.0 °F 33.1 °F 19.4 °F 42% 30.27 in 10.0 mi South 15.0 mph - N/A   Overcast
8:35 PM 39.2 °F 31.6 °F 19.4 °F 45% 30.27 in 10.0 mi SSE 12.7 mph - N/A   Overcast
8:55 PM 39.2 °F 33.0 °F 21.2 °F 49% 30.28 in 10.0 mi SE 9.2 mph - N/A   Overcast
9:15 PM 39.2 °F 31.2 °F 21.2 °F 49% 30.27 in 10.0 mi SSE 13.8 mph 18.4 mph N/A   Overcast
9:35 PM 39.2 °F 31.2 °F 21.2 °F 49% 30.25 in 10.0 mi SSE 13.8 mph 19.6 mph N/A   Overcast
9:55 PM 39.2 °F 32.5 °F 21.2 °F 49% 30.25 in 10.0 mi SSE 10.4 mph - N/A   Overcast
10:15 PM 39.2 °F 31.6 °F 19.4 °F 45% 30.25 in 10.0 mi South 12.7 mph 20.7 mph N/A   Overcast
11:15 PM 39.2 °F 31.2 °F 19.4 °F 45% 30.25 in 10.0 mi South 13.8 mph 20.7 mph N/A   Overcast
11:55 PM 41.0 °F 33.1 °F 21.2 °F 45% 30.26 in 10.0 mi South 15.0 mph 18.4 mph N/A   Overcast